KFZY

Oswego County Airport

Fulton, New York, USA
METAR KFZY 171354Z AUTO 26015G20KT 4SM HZ BKN012 OVC017 03/M01 A2975 RMK AO2 SLP077 T00281006
Observed Flight Rules
Dec-17 @ 13:54 UTC (38 minutes ago) Marginal Visual Flight Rules
Wind Visibility Clouds Conditions
260° at 15 knots
 Gusting to 20 knots
4 miles
  • Broken at 1,200' AGL
  • Overcast at 1,700' AGL
  • Haze
Temperatures Readings
Current 3°C / 37°F
Dewpoint -1°C / 30°F
Humidity 75%
Altimeter 29.75" Hg
Pressure 1007.7 hPa
Elevation 138
METAR KFZY 171354Z AUTO 26015G20KT 4SM HZ BKN012 OVC017 03/M01 A2975 RMK AO2 SLP077 T00281006
Observed Flight Rules
Dec-17 @ 13:54 UTC
(38 minutes ago)
MVFR
Wind Visibility
260° at 15 knots
 Gusting to 20 knots
4 miles
Clouds
  • Broken at 1,200' AGL
  • Overcast at 1,700' AGL
Conditions
  • Haze
Temperature Dewpoint
3°C / 37°F -1°C / 30°F
Humidity Altimeter Pressure
75% 29.75" Hg 1007.7 hPa